sensor_id;sensor_type;location;lat;lon;timestamp;temperature;humidity
32095;DHT22;18608;53.688;10.748;2023-01-10T00:04:17;5.80;99.90
32095;DHT22;18608;53.688;10.748;2023-01-10T00:06:42;5.80;99.90
32095;DHT22;18608;53.688;10.748;2023-01-10T00:09:09;5.80;99.90
32095;DHT22;18608;53.688;10.748;2023-01-10T00:14:20;5.80;99.90
32095;DHT22;18608;53.688;10.748;2023-01-10T00:16:46;5.80;99.90
32095;DHT22;18608;53.688;10.748;2023-01-10T00:19:11;5.90;99.90
32095;DHT22;18608;53.688;10.748;2023-01-10T00:21:37;5.90;99.90
32095;DHT22;18608;53.688;10.748;2023-01-10T00:24:04;5.90;99.90
32095;DHT22;18608;53.688;10.748;2023-01-10T00:26:42;5.90;99.90
32095;DHT22;18608;53.688;10.748;2023-01-10T00:29:10;5.80;99.90
32095;DHT22;18608;53.688;10.748;2023-01-10T00:31:36;5.90;99.90
32095;DHT22;18608;53.688;10.748;2023-01-10T00:34:02;5.80;99.90
32095;DHT22;18608;53.688;10.748;2023-01-10T00:36:27;5.90;99.90
32095;DHT22;18608;53.688;10.748;2023-01-10T00:38:53;5.90;99.90
32095;DHT22;18608;53.688;10.748;2023-01-10T00:41:18;5.90;99.90
32095;DHT22;18608;53.688;10.748;2023-01-10T00:44:03;5.90;99.90
32095;DHT22;18608;53.688;10.748;2023-01-10T00:46:30;5.90;99.90
32095;DHT22;18608;53.688;10.748;2023-01-10T00:48:56;5.90;99.90
32095;DHT22;18608;53.688;10.748;2023-01-10T00:51:22;5.90;99.90
32095;DHT22;18608;53.688;10.748;2023-01-10T00:53:47;6.00;99.90
32095;DHT22;18608;53.688;10.748;2023-01-10T00:56:13;6.00;99.90
32095;DHT22;18608;53.688;10.748;2023-01-10T00:58:39;5.90;99.90
32095;DHT22;18608;53.688;10.748;2023-01-10T01:01:04;6.00;99.90
32095;DHT22;18608;53.688;10.748;2023-01-10T01:03:30;5.90;99.90
32095;DHT22;18608;53.688;10.748;2023-01-10T01:05:56;6.00;99.90
32095;DHT22;18608;53.688;10.748;2023-01-10T01:10:47;6.00;99.90
32095;DHT22;18608;53.688;10.748;2023-01-10T01:13:16;5.90;99.90
32095;DHT22;18608;53.688;10.748;2023-01-10T01:15:42;6.00;99.90
32095;DHT22;18608;53.688;10.748;2023-01-10T01:18:13;6.00;99.90
32095;DHT22;18608;53.688;10.748;2023-01-10T01:20:40;6.00;99.90
32095;DHT22;18608;53.688;10.748;2023-01-10T01:23:06;6.00;99.90
32095;DHT22;18608;53.688;10.748;2023-01-10T01:25:31;5.90;99.90
32095;DHT22;18608;53.688;10.748;2023-01-10T01:27:57;6.00;99.90
32095;DHT22;18608;53.688;10.748;2023-01-10T01:30:23;6.00;99.90
32095;DHT22;18608;53.688;10.748;2023-01-10T01:32:48;6.00;99.90
32095;DHT22;18608;53.688;10.748;2023-01-10T01:35:15;6.00;99.90
32095;DHT22;18608;53.688;10.748;2023-01-10T01:37:42;6.00;99.90
32095;DHT22;18608;53.688;10.748;2023-01-10T01:40:19;6.00;99.90
32095;DHT22;18608;53.688;10.748;2023-01-10T01:42:45;6.00;99.90
32095;DHT22;18608;53.688;10.748;2023-01-10T01:53:10;6.00;99.90
32095;DHT22;18608;53.688;10.748;2023-01-10T01:55:37;6.00;99.90
32095;DHT22;18608;53.688;10.748;2023-01-10T01:58:08;6.00;99.90
32095;DHT22;18608;53.688;10.748;2023-01-10T02:00:35;6.10;99.90
32095;DHT22;18608;53.688;10.748;2023-01-10T02:03:01;6.00;99.90
32095;DHT22;18608;53.688;10.748;2023-01-10T02:05:28;6.00;99.90
32095;DHT22;18608;53.688;10.748;2023-01-10T02:07:56;6.00;99.90
32095;DHT22;18608;53.688;10.748;2023-01-10T02:13:10;6.00;99.90
32095;DHT22;18608;53.688;10.748;2023-01-10T02:15:37;6.00;99.90
32095;DHT22;18608;53.688;10.748;2023-01-10T02:18:03;6.00;99.90
32095;DHT22;18608;53.688;10.748;2023-01-10T02:20:45;6.00;99.90
32095;DHT22;18608;53.688;10.748;2023-01-10T02:23:38;6.00;99.90
32095;DHT22;18608;53.688;10.748;2023-01-10T02:40:54;5.90;99.90
32095;DHT22;18608;53.688;10.748;2023-01-10T02:43:25;5.80;99.90
32095;DHT22;18608;53.688;10.748;2023-01-10T02:45:58;5.90;99.90
32095;DHT22;18608;53.688;10.748;2023-01-10T02:48:26;5.90;99.90
32095;DHT22;18608;53.688;10.748;2023-01-10T02:51:00;6.00;99.90
32095;DHT22;18608;53.688;10.748;2023-01-10T02:53:35;5.90;99.90
32095;DHT22;18608;53.688;10.748;2023-01-10T03:12:57;5.90;99.90
32095;DHT22;18608;53.688;10.748;2023-01-10T03:15:27;5.90;99.90
32095;DHT22;18608;53.688;10.748;2023-01-10T03:17:57;5.90;99.90
32095;DHT22;18608;53.688;10.748;2023-01-10T03:20:24;5.90;99.90
32095;DHT22;18608;53.688;10.748;2023-01-10T03:22:54;5.90;99.90
32095;DHT22;18608;53.688;10.748;2023-01-10T03:25:23;5.90;99.90
32095;DHT22;18608;53.688;10.748;2023-01-10T03:27:56;5.80;99.90
32095;DHT22;18608;53.688;10.748;2023-01-10T03:30:40;5.80;99.90
32095;DHT22;18608;53.688;10.748;2023-01-10T03:33:07;5.80;99.90
32095;DHT22;18608;53.688;10.748;2023-01-10T03:38:49;5.70;99.90
32095;DHT22;18608;53.688;10.748;2023-01-10T03:41:32;5.40;99.90
32095;DHT22;18608;53.688;10.748;2023-01-10T03:44:19;5.70;99.90
32095;DHT22;18608;53.688;10.748;2023-01-10T03:50:19;5.60;99.90
32095;DHT22;18608;53.688;10.748;2023-01-10T03:52:45;5.60;99.90
32095;DHT22;18608;53.688;10.748;2023-01-10T03:55:14;5.60;99.90
32095;DHT22;18608;53.688;10.748;2023-01-10T03:57:43;5.50;99.90
32095;DHT22;18608;53.688;10.748;2023-01-10T04:00:11;5.50;99.90
32095;DHT22;18608;53.688;10.748;2023-01-10T04:02:37;5.50;99.90
32095;DHT22;18608;53.688;10.748;2023-01-10T04:05:03;5.50;99.90
32095;DHT22;18608;53.688;10.748;2023-01-10T04:07:29;5.50;99.90
32095;DHT22;18608;53.688;10.748;2023-01-10T04:09:54;5.40;99.90
32095;DHT22;18608;53.688;10.748;2023-01-10T04:14:46;5.40;99.90
32095;DHT22;18608;53.688;10.748;2023-01-10T04:17:13;5.40;99.90
32095;DHT22;18608;53.688;10.748;2023-01-10T04:19:40;5.40;99.90
32095;DHT22;18608;53.688;10.748;2023-01-10T04:22:06;5.40;99.90
32095;DHT22;18608;53.688;10.748;2023-01-10T04:24:32;5.40;99.90
32095;DHT22;18608;53.688;10.748;2023-01-10T04:26:57;5.40;99.90
32095;DHT22;18608;53.688;10.748;2023-01-10T04:29:23;5.30;99.90
32095;DHT22;18608;53.688;10.748;2023-01-10T04:31:49;5.30;99.90
32095;DHT22;18608;53.688;10.748;2023-01-10T04:34:15;5.30;99.90
32095;DHT22;18608;53.688;10.748;2023-01-10T04:36:41;5.20;99.90
32095;DHT22;18608;53.688;10.748;2023-01-10T04:39:07;5.20;99.90
32095;DHT22;18608;53.688;10.748;2023-01-10T04:41:33;5.10;99.90
32095;DHT22;18608;53.688;10.748;2023-01-10T04:43:59;5.10;99.90
32095;DHT22;18608;53.688;10.748;2023-01-10T04:46:25;5.00;99.90
32095;DHT22;18608;53.688;10.748;2023-01-10T04:48:50;5.00;99.90
32095;DHT22;18608;53.688;10.748;2023-01-10T04:51:16;5.00;99.90
32095;DHT22;18608;53.688;10.748;2023-01-10T04:53:42;5.00;99.90
32095;DHT22;18608;53.688;10.748;2023-01-10T04:56:16;4.90;99.90
32095;DHT22;18608;53.688;10.748;2023-01-10T04:58:43;4.90;99.90
32095;DHT22;18608;53.688;10.748;2023-01-10T05:01:10;4.90;99.90
32095;DHT22;18608;53.688;10.748;2023-01-10T05:03:36;4.90;99.90
32095;DHT22;18608;53.688;10.748;2023-01-10T05:06:03;4.90;99.90
32095;DHT22;18608;53.688;10.748;2023-01-10T05:08:28;4.80;99.90
32095;DHT22;18608;53.688;10.748;2023-01-10T05:10:54;4.80;99.90
32095;DHT22;18608;53.688;10.748;2023-01-10T05:13:20;4.80;99.90
32095;DHT22;18608;53.688;10.748;2023-01-10T05:15:46;4.80;99.90
32095;DHT22;18608;53.688;10.748;2023-01-10T05:18:11;4.80;99.90
32095;DHT22;18608;53.688;10.748;2023-01-10T05:20:37;4.90;99.90
32095;DHT22;18608;53.688;10.748;2023-01-10T05:23:02;4.80;99.90
32095;DHT22;18608;53.688;10.748;2023-01-10T05:25:28;4.80;99.90
32095;DHT22;18608;53.688;10.748;2023-01-10T05:27:53;4.80;99.90
32095;DHT22;18608;53.688;10.748;2023-01-10T05:30:19;4.80;99.90
32095;DHT22;18608;53.688;10.748;2023-01-10T05:32:45;4.80;99.90
32095;DHT22;18608;53.688;10.748;2023-01-10T05:35:11;4.90;99.90
32095;DHT22;18608;53.688;10.748;2023-01-10T05:37:37;4.90;99.90
32095;DHT22;18608;53.688;10.748;2023-01-10T05:40:03;5.00;99.90
32095;DHT22;18608;53.688;10.748;2023-01-10T05:42:28;4.90;99.90
32095;DHT22;18608;53.688;10.748;2023-01-10T05:44:54;4.90;99.90
32095;DHT22;18608;53.688;10.748;2023-01-10T05:47:20;4.90;99.90
32095;DHT22;18608;53.688;10.748;2023-01-10T05:52:11;4.90;99.90
32095;DHT22;18608;53.688;10.748;2023-01-10T05:54:37;4.90;99.90
32095;DHT22;18608;53.688;10.748;2023-01-10T05:57:03;5.00;99.90
32095;DHT22;18608;53.688;10.748;2023-01-10T05:59:28;5.00;99.90
32095;DHT22;18608;53.688;10.748;2023-01-10T06:01:54;5.00;99.90
32095;DHT22;18608;53.688;10.748;2023-01-10T06:04:19;5.00;99.90
32095;DHT22;18608;53.688;10.748;2023-01-10T06:06:45;5.00;99.90
32095;DHT22;18608;53.688;10.748;2023-01-10T06:09:10;5.00;99.90
32095;DHT22;18608;53.688;10.748;2023-01-10T06:11:36;4.90;99.90
32095;DHT22;18608;53.688;10.748;2023-01-10T06:14:03;4.90;99.90
32095;DHT22;18608;53.688;10.748;2023-01-10T06:16:29;4.90;99.90
32095;DHT22;18608;53.688;10.748;2023-01-10T06:18:55;4.90;99.90
32095;DHT22;18608;53.688;10.748;2023-01-10T06:21:21;4.90;99.90
32095;DHT22;18608;53.688;10.748;2023-01-10T06:23:46;5.00;99.90
32095;DHT22;18608;53.688;10.748;2023-01-10T06:26:12;4.90;99.90
32095;DHT22;18608;53.688;10.748;2023-01-10T06:28:38;4.90;99.90
32095;DHT22;18608;53.688;10.748;2023-01-10T06:31:09;4.80;99.90
32095;DHT22;18608;53.688;10.748;2023-01-10T06:33:35;4.80;99.90
32095;DHT22;18608;53.688;10.748;2023-01-10T06:36:01;4.80;99.90
32095;DHT22;18608;53.688;10.748;2023-01-10T06:38:26;4.80;99.90
32095;DHT22;18608;53.688;10.748;2023-01-10T06:40:52;4.70;99.90
32095;DHT22;18608;53.688;10.748;2023-01-10T06:43:18;4.70;99.90
32095;DHT22;18608;53.688;10.748;2023-01-10T06:45:43;4.70;99.90
32095;DHT22;18608;53.688;10.748;2023-01-10T06:48:09;4.70;99.90
32095;DHT22;18608;53.688;10.748;2023-01-10T06:50:34;4.70;99.90
32095;DHT22;18608;53.688;10.748;2023-01-10T06:53:02;4.60;99.90
32095;DHT22;18608;53.688;10.748;2023-01-10T06:55:28;4.60;99.90
32095;DHT22;18608;53.688;10.748;2023-01-10T06:57:56;4.60;99.90
32095;DHT22;18608;53.688;10.748;2023-01-10T07:00:22;4.60;99.90
32095;DHT22;18608;53.688;10.748;2023-01-10T07:02:47;4.50;99.90
32095;DHT22;18608;53.688;10.748;2023-01-10T07:05:13;4.50;99.90
32095;DHT22;18608;53.688;10.748;2023-01-10T07:07:39;4.50;99.90
32095;DHT22;18608;53.688;10.748;2023-01-10T07:10:05;4.50;99.90
32095;DHT22;18608;53.688;10.748;2023-01-10T07:12:30;4.40;99.90
32095;DHT22;18608;53.688;10.748;2023-01-10T07:14:56;4.50;99.90
32095;DHT22;18608;53.688;10.748;2023-01-10T07:17:22;4.40;99.90
32095;DHT22;18608;53.688;10.748;2023-01-10T07:19:47;4.40;99.90
32095;DHT22;18608;53.688;10.748;2023-01-10T07:22:13;4.40;99.90
32095;DHT22;18608;53.688;10.748;2023-01-10T07:24:38;4.40;99.90
32095;DHT22;18608;53.688;10.748;2023-01-10T07:27:04;4.40;99.90
32095;DHT22;18608;53.688;10.748;2023-01-10T07:29:29;4.30;99.90
32095;DHT22;18608;53.688;10.748;2023-01-10T07:31:55;4.30;99.90
32095;DHT22;18608;53.688;10.748;2023-01-10T07:34:21;4.30;99.90
32095;DHT22;18608;53.688;10.748;2023-01-10T07:36:46;4.30;99.90
32095;DHT22;18608;53.688;10.748;2023-01-10T07:39:12;4.30;99.90
32095;DHT22;18608;53.688;10.748;2023-01-10T07:41:37;4.30;99.90
32095;DHT22;18608;53.688;10.748;2023-01-10T07:44:03;4.30;99.90
32095;DHT22;18608;53.688;10.748;2023-01-10T07:46:29;4.30;99.90
32095;DHT22;18608;53.688;10.748;2023-01-10T07:48:54;4.30;99.90
32095;DHT22;18608;53.688;10.748;2023-01-10T07:51:20;4.20;99.90
32095;DHT22;18608;53.688;10.748;2023-01-10T07:53:45;4.30;99.90
32095;DHT22;18608;53.688;10.748;2023-01-10T07:56:11;4.20;99.90
32095;DHT22;18608;53.688;10.748;2023-01-10T07:58:37;4.20;99.90
32095;DHT22;18608;53.688;10.748;2023-01-10T08:01:04;4.30;99.90
32095;DHT22;18608;53.688;10.748;2023-01-10T08:03:30;4.30;99.90
32095;DHT22;18608;53.688;10.748;2023-01-10T08:06:02;4.20;99.90
32095;DHT22;18608;53.688;10.748;2023-01-10T08:08:28;4.20;99.90
32095;DHT22;18608;53.688;10.748;2023-01-10T08:10:54;4.20;99.90
32095;DHT22;18608;53.688;10.748;2023-01-10T08:13:20;4.20;99.90
32095;DHT22;18608;53.688;10.748;2023-01-10T08:15:46;4.10;99.90
32095;DHT22;18608;53.688;10.748;2023-01-10T08:18:14;4.10;99.90
32095;DHT22;18608;53.688;10.748;2023-01-10T08:20:40;4.10;99.90
32095;DHT22;18608;53.688;10.748;2023-01-10T08:23:06;4.10;99.90
32095;DHT22;18608;53.688;10.748;2023-01-10T08:25:31;4.10;99.90
32095;DHT22;18608;53.688;10.748;2023-01-10T08:27:57;4.20;99.90
32095;DHT22;18608;53.688;10.748;2023-01-10T08:30:22;4.10;99.90
32095;DHT22;18608;53.688;10.748;2023-01-10T08:32:48;4.10;99.90
32095;DHT22;18608;53.688;10.748;2023-01-10T08:35:14;4.20;99.90
32095;DHT22;18608;53.688;10.748;2023-01-10T08:37:40;4.20;99.90
32095;DHT22;18608;53.688;10.748;2023-01-10T08:40:06;4.20;99.90
32095;DHT22;18608;53.688;10.748;2023-01-10T08:42:32;4.20;99.90
32095;DHT22;18608;53.688;10.748;2023-01-10T08:44:57;4.20;99.90
32095;DHT22;18608;53.688;10.748;2023-01-10T08:47:24;4.20;99.90
32095;DHT22;18608;53.688;10.748;2023-01-10T08:49:50;4.20;99.90
32095;DHT22;18608;53.688;10.748;2023-01-10T08:52:15;4.30;99.90
32095;DHT22;18608;53.688;10.748;2023-01-10T08:54:42;4.30;99.90
32095;DHT22;18608;53.688;10.748;2023-01-10T08:57:08;4.30;99.90
32095;DHT22;18608;53.688;10.748;2023-01-10T08:59:33;4.50;99.90
32095;DHT22;18608;53.688;10.748;2023-01-10T09:01:59;4.50;99.90
32095;DHT22;18608;53.688;10.748;2023-01-10T09:04:25;4.40;99.90
32095;DHT22;18608;53.688;10.748;2023-01-10T09:06:53;4.40;99.90
32095;DHT22;18608;53.688;10.748;2023-01-10T09:09:19;4.40;99.90
32095;DHT22;18608;53.688;10.748;2023-01-10T09:11:45;4.40;99.90
32095;DHT22;18608;53.688;10.748;2023-01-10T09:14:11;4.40;99.90
32095;DHT22;18608;53.688;10.748;2023-01-10T09:16:36;4.50;99.90
32095;DHT22;18608;53.688;10.748;2023-01-10T09:19:02;4.50;99.90
32095;DHT22;18608;53.688;10.748;2023-01-10T09:21:28;5.10;99.90
32095;DHT22;18608;53.688;10.748;2023-01-10T09:23:53;4.60;99.90
32095;DHT22;18608;53.688;10.748;2023-01-10T09:26:19;4.60;99.90
32095;DHT22;18608;53.688;10.748;2023-01-10T09:28:45;4.60;99.90
32095;DHT22;18608;53.688;10.748;2023-01-10T09:31:10;4.70;99.90
32095;DHT22;18608;53.688;10.748;2023-01-10T09:33:37;4.70;99.90
32095;DHT22;18608;53.688;10.748;2023-01-10T09:36:03;4.80;99.90
32095;DHT22;18608;53.688;10.748;2023-01-10T09:38:28;4.80;99.90
32095;DHT22;18608;53.688;10.748;2023-01-10T09:41:05;4.90;99.90
32095;DHT22;18608;53.688;10.748;2023-01-10T09:51:56;5.10;99.90
32095;DHT22;18608;53.688;10.748;2023-01-10T09:54:31;5.20;99.90
32095;DHT22;18608;53.688;10.748;2023-01-10T09:56:59;5.30;99.90
32095;DHT22;18608;53.688;10.748;2023-01-10T09:59:35;5.30;99.90
32095;DHT22;18608;53.688;10.748;2023-01-10T10:02:22;5.30;99.90
32095;DHT22;18608;53.688;10.748;2023-01-10T10:07:32;5.30;99.90
32095;DHT22;18608;53.688;10.748;2023-01-10T10:09:58;5.30;99.90
32095;DHT22;18608;53.688;10.748;2023-01-10T10:12:49;5.40;99.90
32095;DHT22;18608;53.688;10.748;2023-01-10T10:15:29;5.40;99.90
32095;DHT22;18608;53.688;10.748;2023-01-10T10:20:56;5.40;99.90
32095;DHT22;18608;53.688;10.748;2023-01-10T10:23:31;5.50;99.90
32095;DHT22;18608;53.688;10.748;2023-01-10T10:26:10;5.50;99.90
32095;DHT22;18608;53.688;10.748;2023-01-10T10:32:03;5.60;99.90
32095;DHT22;18608;53.688;10.748;2023-01-10T10:34:28;5.60;99.90
32095;DHT22;18608;53.688;10.748;2023-01-10T10:37:26;5.70;99.90
32095;DHT22;18608;53.688;10.748;2023-01-10T10:42:44;5.60;99.90
32095;DHT22;18608;53.688;10.748;2023-01-10T10:47:46;5.70;99.90
32095;DHT22;18608;53.688;10.748;2023-01-10T10:52:41;5.70;99.90
32095;DHT22;18608;53.688;10.748;2023-01-10T10:55:16;5.70;99.90
32095;DHT22;18608;53.688;10.748;2023-01-10T10:57:44;5.70;99.90
32095;DHT22;18608;53.688;10.748;2023-01-10T11:00:18;5.80;99.90
32095;DHT22;18608;53.688;10.748;2023-01-10T11:02:48;5.80;99.90
32095;DHT22;18608;53.688;10.748;2023-01-10T11:05:39;5.80;99.90
32095;DHT22;18608;53.688;10.748;2023-01-10T11:08:08;5.80;99.90
32095;DHT22;18608;53.688;10.748;2023-01-10T11:10:39;5.80;99.90
32095;DHT22;18608;53.688;10.748;2023-01-10T11:16:00;5.80;99.90
32095;DHT22;18608;53.688;10.748;2023-01-10T11:18:27;5.80;99.90
32095;DHT22;18608;53.688;10.748;2023-01-10T11:21:00;5.80;99.90
32095;DHT22;18608;53.688;10.748;2023-01-10T11:26:21;5.80;99.90
32095;DHT22;18608;53.688;10.748;2023-01-10T11:28:50;5.80;99.90
32095;DHT22;18608;53.688;10.748;2023-01-10T11:31:26;5.30;99.90
32095;DHT22;18608;53.688;10.748;2023-01-10T11:33:52;5.90;99.90
32095;DHT22;18608;53.688;10.748;2023-01-10T11:36:18;5.90;99.90
32095;DHT22;18608;53.688;10.748;2023-01-10T11:38:58;5.90;99.90
32095;DHT22;18608;53.688;10.748;2023-01-10T11:41:25;5.90;99.90
32095;DHT22;18608;53.688;10.748;2023-01-10T11:44:21;5.90;99.90
32095;DHT22;18608;53.688;10.748;2023-01-10T11:46:48;6.00;99.90
32095;DHT22;18608;53.688;10.748;2023-01-10T11:49:25;5.90;99.90
32095;DHT22;18608;53.688;10.748;2023-01-10T11:51:57;5.90;99.90
32095;DHT22;18608;53.688;10.748;2023-01-10T11:54:27;5.90;99.90
32095;DHT22;18608;53.688;10.748;2023-01-10T11:59:38;5.90;99.90
32095;DHT22;18608;53.688;10.748;2023-01-10T12:02:20;5.90;99.90
32095;DHT22;18608;53.688;10.748;2023-01-10T12:04:48;5.90;99.90
32095;DHT22;18608;53.688;10.748;2023-01-10T12:07:15;5.90;99.90
32095;DHT22;18608;53.688;10.748;2023-01-10T12:09:44;7.50;99.90
32095;DHT22;18608;53.688;10.748;2023-01-10T12:14:44;6.00;99.90
32095;DHT22;18608;53.688;10.748;2023-01-10T12:17:20;6.00;99.90
32095;DHT22;18608;53.688;10.748;2023-01-10T12:19:46;6.00;99.90
32095;DHT22;18608;53.688;10.748;2023-01-10T12:22:14;6.00;99.90
32095;DHT22;18608;53.688;10.748;2023-01-10T12:24:42;6.00;99.90
32095;DHT22;18608;53.688;10.748;2023-01-10T12:27:12;6.00;99.90
32095;DHT22;18608;53.688;10.748;2023-01-10T12:29:43;6.10;99.90
32095;DHT22;18608;53.688;10.748;2023-01-10T12:32:25;6.00;99.90
32095;DHT22;18608;53.688;10.748;2023-01-10T12:34:59;6.10;99.90
32095;DHT22;18608;53.688;10.748;2023-01-10T12:37:50;6.10;99.90
32095;DHT22;18608;53.688;10.748;2023-01-10T12:40:46;6.10;99.90
32095;DHT22;18608;53.688;10.748;2023-01-10T12:43:37;6.10;99.90
32095;DHT22;18608;53.688;10.748;2023-01-10T12:46:32;6.10;99.90
32095;DHT22;18608;53.688;10.748;2023-01-10T12:49:07;6.10;99.90
32095;DHT22;18608;53.688;10.748;2023-01-10T12:51:37;6.10;99.90
32095;DHT22;18608;53.688;10.748;2023-01-10T12:54:11;6.10;99.90
32095;DHT22;18608;53.688;10.748;2023-01-10T12:56:39;6.20;99.90
32095;DHT22;18608;53.688;10.748;2023-01-10T12:59:28;6.20;99.90
32095;DHT22;18608;53.688;10.748;2023-01-10T13:01:59;6.60;99.90
32095;DHT22;18608;53.688;10.748;2023-01-10T13:04:28;6.30;99.90
32095;DHT22;18608;53.688;10.748;2023-01-10T13:06:55;6.30;99.90
32095;DHT22;18608;53.688;10.748;2023-01-10T13:09:26;6.30;99.90
32095;DHT22;18608;53.688;10.748;2023-01-10T13:14:34;6.20;99.90
32095;DHT22;18608;53.688;10.748;2023-01-10T13:22:47;6.20;99.90
32095;DHT22;18608;53.688;10.748;2023-01-10T13:30:36;6.20;99.90
32095;DHT22;18608;53.688;10.748;2023-01-10T13:33:17;6.30;99.90
32095;DHT22;18608;53.688;10.748;2023-01-10T13:35:45;6.40;99.90
32095;DHT22;18608;53.688;10.748;2023-01-10T13:41:14;6.40;99.90
32095;DHT22;18608;53.688;10.748;2023-01-10T13:44:13;6.40;99.90
32095;DHT22;18608;53.688;10.748;2023-01-10T13:46:49;6.40;99.90
32095;DHT22;18608;53.688;10.748;2023-01-10T13:49:39;6.40;99.90
32095;DHT22;18608;53.688;10.748;2023-01-10T13:52:28;6.90;99.90
32095;DHT22;18608;53.688;10.748;2023-01-10T13:55:00;6.40;99.90
32095;DHT22;18608;53.688;10.748;2023-01-10T13:57:53;6.40;99.90
32095;DHT22;18608;53.688;10.748;2023-01-10T14:06:02;6.40;99.90
32095;DHT22;18608;53.688;10.748;2023-01-10T14:08:30;6.40;99.90
32095;DHT22;18608;53.688;10.748;2023-01-10T14:11:10;6.40;99.90
32095;DHT22;18608;53.688;10.748;2023-01-10T14:13:36;6.40;99.90
32095;DHT22;18608;53.688;10.748;2023-01-10T14:16:02;6.40;99.90
32095;DHT22;18608;53.688;10.748;2023-01-10T14:18:33;6.40;99.90
32095;DHT22;18608;53.688;10.748;2023-01-10T14:21:02;6.40;99.90
32095;DHT22;18608;53.688;10.748;2023-01-10T14:23:37;6.40;99.90
32095;DHT22;18608;53.688;10.748;2023-01-10T14:26:05;6.40;99.90
32095;DHT22;18608;53.688;10.748;2023-01-10T14:28:34;6.40;99.90
32095;DHT22;18608;53.688;10.748;2023-01-10T14:31:07;6.40;99.90
32095;DHT22;18608;53.688;10.748;2023-01-10T14:33:35;6.30;99.90
32095;DHT22;18608;53.688;10.748;2023-01-10T14:36:08;6.30;99.90
32095;DHT22;18608;53.688;10.748;2023-01-10T14:38:39;6.30;99.90
32095;DHT22;18608;53.688;10.748;2023-01-10T14:41:17;6.40;99.90
32095;DHT22;18608;53.688;10.748;2023-01-10T14:44:07;6.30;99.90
32095;DHT22;18608;53.688;10.748;2023-01-10T14:51:44;6.40;99.90
32095;DHT22;18608;53.688;10.748;2023-01-10T14:54:12;6.30;99.90
32095;DHT22;18608;53.688;10.748;2023-01-10T14:56:40;6.30;99.90
32095;DHT22;18608;53.688;10.748;2023-01-10T15:01:52;6.30;99.90
32095;DHT22;18608;53.688;10.748;2023-01-10T15:04:21;6.30;99.90
32095;DHT22;18608;53.688;10.748;2023-01-10T15:06:59;6.30;99.90
32095;DHT22;18608;53.688;10.748;2023-01-10T15:09:28;6.20;99.90
32095;DHT22;18608;53.688;10.748;2023-01-10T15:11:55;6.20;99.90
32095;DHT22;18608;53.688;10.748;2023-01-10T15:14:22;6.30;99.90
32095;DHT22;18608;53.688;10.748;2023-01-10T15:16:52;6.20;99.90
32095;DHT22;18608;53.688;10.748;2023-01-10T15:19:21;6.20;99.90
32095;DHT22;18608;53.688;10.748;2023-01-10T15:21:47;6.00;99.90
32095;DHT22;18608;53.688;10.748;2023-01-10T15:24:35;6.20;99.90
32095;DHT22;18608;53.688;10.748;2023-01-10T15:27:04;6.20;99.90
32095;DHT22;18608;53.688;10.748;2023-01-10T15:29:32;6.10;99.90
32095;DHT22;18608;53.688;10.748;2023-01-10T15:32:42;6.10;99.90
32095;DHT22;18608;53.688;10.748;2023-01-10T15:35:09;6.10;99.90
32095;DHT22;18608;53.688;10.748;2023-01-10T15:37:37;6.10;99.90
32095;DHT22;18608;53.688;10.748;2023-01-10T15:40:17;6.10;99.90
32095;DHT22;18608;53.688;10.748;2023-01-10T15:42:43;6.00;99.90
32095;DHT22;18608;53.688;10.748;2023-01-10T15:52:48;6.00;99.90
32095;DHT22;18608;53.688;10.748;2023-01-10T15:57:59;6.00;99.90
32095;DHT22;18608;53.688;10.748;2023-01-10T16:00:26;6.00;99.90
32095;DHT22;18608;53.688;10.748;2023-01-10T16:02:52;6.00;99.90
32095;DHT22;18608;53.688;10.748;2023-01-10T16:05:18;6.00;99.90
32095;DHT22;18608;53.688;10.748;2023-01-10T16:07:45;6.00;99.90
32095;DHT22;18608;53.688;10.748;2023-01-10T16:10:25;6.00;99.90
32095;DHT22;18608;53.688;10.748;2023-01-10T16:12:52;6.00;99.90
32095;DHT22;18608;53.688;10.748;2023-01-10T16:15:39;6.00;99.90
32095;DHT22;18608;53.688;10.748;2023-01-10T16:18:08;6.00;99.90
32095;DHT22;18608;53.688;10.748;2023-01-10T16:20:38;6.10;99.90
32095;DHT22;18608;53.688;10.748;2023-01-10T16:23:08;6.10;99.90
32095;DHT22;18608;53.688;10.748;2023-01-10T16:25:38;6.00;99.90
32095;DHT22;18608;53.688;10.748;2023-01-10T16:28:04;6.00;99.90
32095;DHT22;18608;53.688;10.748;2023-01-10T16:30:32;6.00;99.90
32095;DHT22;18608;53.688;10.748;2023-01-10T16:33:01;6.10;99.90
32095;DHT22;18608;53.688;10.748;2023-01-10T16:35:33;6.00;99.90
32095;DHT22;18608;53.688;10.748;2023-01-10T16:37:58;6.00;99.90
32095;DHT22;18608;53.688;10.748;2023-01-10T16:40:33;6.00;99.90
32095;DHT22;18608;53.688;10.748;2023-01-10T16:43:00;6.00;99.90
32095;DHT22;18608;53.688;10.748;2023-01-10T16:45:57;5.90;99.90
32095;DHT22;18608;53.688;10.748;2023-01-10T16:48:27;5.90;99.90
32095;DHT22;18608;53.688;10.748;2023-01-10T16:50:54;5.90;99.90
32095;DHT22;18608;53.688;10.748;2023-01-10T16:53:20;5.90;99.90
32095;DHT22;18608;53.688;10.748;2023-01-10T16:55:51;5.80;99.90
32095;DHT22;18608;53.688;10.748;2023-01-10T16:58:18;5.90;99.90
32095;DHT22;18608;53.688;10.748;2023-01-10T17:00:46;5.90;99.90
32095;DHT22;18608;53.688;10.748;2023-01-10T17:03:34;5.90;99.90
32095;DHT22;18608;53.688;10.748;2023-01-10T17:06:03;5.80;99.90
32095;DHT22;18608;53.688;10.748;2023-01-10T17:08:29;5.90;99.90
32095;DHT22;18608;53.688;10.748;2023-01-10T17:10:59;5.90;99.90
32095;DHT22;18608;53.688;10.748;2023-01-10T17:13:34;5.90;99.90
32095;DHT22;18608;53.688;10.748;2023-01-10T17:16:01;5.80;99.90
32095;DHT22;18608;53.688;10.748;2023-01-10T17:18:26;5.80;99.90
32095;DHT22;18608;53.688;10.748;2023-01-10T17:20:54;5.80;99.90
32095;DHT22;18608;53.688;10.748;2023-01-10T17:23:20;5.80;99.90
32095;DHT22;18608;53.688;10.748;2023-01-10T17:25:46;5.80;99.90
32095;DHT22;18608;53.688;10.748;2023-01-10T17:28:14;5.70;99.90
32095;DHT22;18608;53.688;10.748;2023-01-10T17:30:40;5.70;99.90
32095;DHT22;18608;53.688;10.748;2023-01-10T17:33:06;5.70;99.90
32095;DHT22;18608;53.688;10.748;2023-01-10T17:35:40;5.80;99.90
32095;DHT22;18608;53.688;10.748;2023-01-10T17:38:09;5.70;99.90
32095;DHT22;18608;53.688;10.748;2023-01-10T17:40:41;5.60;99.90
32095;DHT22;18608;53.688;10.748;2023-01-10T17:43:07;5.60;99.90
32095;DHT22;18608;53.688;10.748;2023-01-10T17:45:36;5.60;99.90
32095;DHT22;18608;53.688;10.748;2023-01-10T17:48:02;5.60;99.90
32095;DHT22;18608;53.688;10.748;2023-01-10T17:50:28;5.60;99.90
32095;DHT22;18608;53.688;10.748;2023-01-10T17:52:53;5.50;99.90
32095;DHT22;18608;53.688;10.748;2023-01-10T17:55:19;5.50;99.90
32095;DHT22;18608;53.688;10.748;2023-01-10T17:57:44;5.40;99.90
32095;DHT22;18608;53.688;10.748;2023-01-10T18:00:10;5.40;99.90
32095;DHT22;18608;53.688;10.748;2023-01-10T18:02:36;5.30;99.90